sensor_id;sensor_type;location;lat;lon;timestamp;pressure;altitude;pressure_sealevel;temperature;humidity
39075;BME280;24826;52.070;20.970;2023-02-12T00:00:47;61456.31;;;-147.04;91.87
39075;BME280;24826;52.070;20.970;2023-02-12T00:03:47;61533.88;;;-147.04;92.13
39075;BME280;24826;52.070;20.970;2023-02-12T00:06:32;61464.28;;;-147.04;92.45
39075;BME280;24826;52.070;20.970;2023-02-12T00:09:16;61470.25;;;-147.04;93.04
39075;BME280;24826;52.070;20.970;2023-02-12T00:12:00;61464.28;;;-147.04;91.87
39075;BME280;24826;52.070;20.970;2023-02-12T00:14:44;61432.47;;;-147.04;92.01
39075;BME280;24826;52.070;20.970;2023-02-12T00:17:29;61480.19;;;-147.04;91.72
39075;BME280;24826;52.070;20.970;2023-02-12T00:20:13;61474.22;;;-147.04;91.24
39075;BME280;24826;52.070;20.970;2023-02-12T00:22:57;61496.09;;;-147.04;91.60
39075;BME280;24826;52.070;20.970;2023-02-12T00:25:43;61515.97;;;-147.04;90.49
39075;BME280;24826;52.070;20.970;2023-02-12T00:28:27;61492.13;;;-147.04;90.59
39075;BME280;24826;52.070;20.970;2023-02-12T00:31:17;61466.25;;;-147.04;90.63
39075;BME280;24826;52.070;20.970;2023-02-12T00:34:01;61492.13;;;-147.04;91.50
39075;BME280;24826;52.070;20.970;2023-02-12T00:36:45;61472.22;;;-147.04;91.27
39075;BME280;24826;52.070;20.970;2023-02-12T00:39:30;61472.22;;;-147.04;91.73
39075;BME280;24826;52.070;20.970;2023-02-12T00:42:14;61496.09;;;-147.04;91.46
39075;BME280;24826;52.070;20.970;2023-02-12T00:44:59;61460.31;;;-147.04;91.34
39075;BME280;24826;52.070;20.970;2023-02-12T00:47:43;61488.13;;;-147.04;90.60
39075;BME280;24826;52.070;20.970;2023-02-12T00:50:30;61462.28;;;-147.04;90.26
39075;BME280;24826;52.070;20.970;2023-02-12T00:53:14;61476.22;;;-147.04;88.81
39075;BME280;24826;52.070;20.970;2023-02-12T00:55:59;61434.44;;;-147.04;87.57
39075;BME280;24826;52.070;20.970;2023-02-12T00:58:44;61450.34;;;-147.04;88.26
39075;BME280;24826;52.070;20.970;2023-02-12T01:01:29;61500.06;;;-147.04;87.55
39075;BME280;24826;52.070;20.970;2023-02-12T01:04:13;61472.22;;;-147.04;87.86
39075;BME280;24826;52.070;20.970;2023-02-12T01:06:58;61452.34;;;-147.04;87.46
39075;BME280;24826;52.070;20.970;2023-02-12T01:09:42;61464.28;;;-147.04;87.07
39075;BME280;24826;52.070;20.970;2023-02-12T01:12:27;61452.34;;;-147.04;86.71
39075;BME280;24826;52.070;20.970;2023-02-12T01:15:12;61476.22;;;-147.04;87.05
39075;BME280;24826;52.070;20.970;2023-02-12T01:17:56;61438.44;;;-147.04;86.77
39075;BME280;24826;52.070;20.970;2023-02-12T01:20:40;61468.25;;;-147.04;86.92
39075;BME280;24826;52.070;20.970;2023-02-12T01:23:25;61450.34;;;-147.04;85.73
39075;BME280;24826;52.070;20.970;2023-02-12T01:26:11;61466.25;;;-147.04;85.63
39075;BME280;24826;52.070;20.970;2023-02-12T01:28:59;61486.16;;;-147.04;85.61
39075;BME280;24826;52.070;20.970;2023-02-12T01:31:44;61460.31;;;-147.04;85.42
39075;BME280;24826;52.070;20.970;2023-02-12T01:34:28;61490.13;;;-147.04;85.06
39075;BME280;24826;52.070;20.970;2023-02-12T01:37:12;61490.13;;;-147.04;85.94
39075;BME280;24826;52.070;20.970;2023-02-12T01:39:57;61468.25;;;-147.04;86.36
39075;BME280;24826;52.070;20.970;2023-02-12T01:42:41;61500.06;;;-147.04;86.71
39075;BME280;24826;52.070;20.970;2023-02-12T01:45:45;61476.22;;;-147.04;87.12
39075;BME280;24826;52.070;20.970;2023-02-12T01:48:36;61512.00;;;-147.04;87.63
39075;BME280;24826;52.070;20.970;2023-02-12T01:51:23;61482.19;;;-147.04;87.30
39075;BME280;24826;52.070;20.970;2023-02-12T01:54:09;61484.16;;;-147.04;87.31
39075;BME280;24826;52.070;20.970;2023-02-12T01:56:54;61494.09;;;-147.04;87.19
39075;BME280;24826;52.070;20.970;2023-02-12T01:59:40;61462.28;;;-147.04;87.55
39075;BME280;24826;52.070;20.970;2023-02-12T02:02:26;61508.03;;;-147.04;86.65
39075;BME280;24826;52.070;20.970;2023-02-12T02:05:17;61460.31;;;-147.04;87.74
39075;BME280;24826;52.070;20.970;2023-02-12T02:08:04;61468.25;;;-147.04;87.46
39075;BME280;24826;52.070;20.970;2023-02-12T02:10:48;61436.44;;;-147.04;87.42
39075;BME280;24826;52.070;20.970;2023-02-12T02:13:32;61464.28;;;-147.04;87.58
39075;BME280;24826;52.070;20.970;2023-02-12T02:16:36;61476.22;;;-147.04;85.68
39075;BME280;24826;52.070;20.970;2023-02-12T02:19:58;61484.16;;;-147.04;86.35
39075;BME280;24826;52.070;20.970;2023-02-12T02:23:17;61452.34;;;-147.04;84.82
39075;BME280;24826;52.070;20.970;2023-02-12T02:32:02;61519.94;;;-147.04;84.86
39075;BME280;24826;52.070;20.970;2023-02-12T02:35:51;61438.44;;;-147.04;85.96
39075;BME280;24826;52.070;20.970;2023-02-12T02:38:22;61482.19;;;-147.04;86.09
39075;BME280;24826;52.070;20.970;2023-02-12T02:41:16;61492.13;;;-147.04;85.58
39075;BME280;24826;52.070;20.970;2023-02-12T02:44:07;61512.00;;;-147.04;86.59
39075;BME280;24826;52.070;20.970;2023-02-12T02:46:54;61508.03;;;-147.04;87.36
39075;BME280;24826;52.070;20.970;2023-02-12T02:49:45;61484.16;;;-147.04;86.99
39075;BME280;24826;52.070;20.970;2023-02-12T02:52:33;61472.22;;;-147.04;87.13
39075;BME280;24826;52.070;20.970;2023-02-12T02:55:21;61504.03;;;-147.04;87.09
39075;BME280;24826;52.070;20.970;2023-02-12T02:58:11;61492.13;;;-147.04;86.81
39075;BME280;24826;52.070;20.970;2023-02-12T03:01:06;61504.03;;;-147.04;87.33
39075;BME280;24826;52.070;20.970;2023-02-12T03:04:01;61468.25;;;-147.04;86.73
39075;BME280;24826;52.070;20.970;2023-02-12T03:06:53;61476.22;;;-147.04;86.38
39075;BME280;24826;52.070;20.970;2023-02-12T03:09:43;61468.25;;;-147.04;86.11
39075;BME280;24826;52.070;20.970;2023-02-12T03:12:32;61500.06;;;-147.04;86.06
39075;BME280;24826;52.070;20.970;2023-02-12T03:15:26;61476.22;;;-147.04;86.30
39075;BME280;24826;52.070;20.970;2023-02-12T03:18:23;61484.16;;;-147.04;86.36
39075;BME280;24826;52.070;20.970;2023-02-12T03:21:12;61462.28;;;-147.04;86.28
39075;BME280;24826;52.070;20.970;2023-02-12T03:24:09;61466.25;;;-147.04;85.33
39075;BME280;24826;52.070;20.970;2023-02-12T03:27:02;61468.25;;;-147.04;84.75
39075;BME280;24826;52.070;20.970;2023-02-12T03:29:48;61472.22;;;-147.04;84.72
39075;BME280;24826;52.070;20.970;2023-02-12T03:35:39;61500.06;;;-147.04;84.44
39075;BME280;24826;52.070;20.970;2023-02-12T03:38:44;61488.13;;;-147.04;84.55
39075;BME280;24826;52.070;20.970;2023-02-12T03:41:36;61448.38;;;-147.04;85.04
39075;BME280;24826;52.070;20.970;2023-02-12T03:44:39;61488.13;;;-147.04;85.26
39075;BME280;24826;52.070;20.970;2023-02-12T03:47:40;61474.22;;;-147.04;84.59
39075;BME280;24826;52.070;20.970;2023-02-12T03:50:34;61452.34;;;-147.04;85.95
39075;BME280;24826;52.070;20.970;2023-02-12T03:53:20;61456.31;;;-147.04;85.25
39075;BME280;24826;52.070;20.970;2023-02-12T03:56:09;61476.22;;;-147.04;85.39
39075;BME280;24826;52.070;20.970;2023-02-12T03:58:56;61464.28;;;-147.04;85.50
39075;BME280;24826;52.070;20.970;2023-02-12T04:01:40;61472.22;;;-147.04;85.78
39075;BME280;24826;52.070;20.970;2023-02-12T04:04:25;61480.19;;;-147.04;86.21
39075;BME280;24826;52.070;20.970;2023-02-12T04:07:11;61472.22;;;-147.04;85.67
39075;BME280;24826;52.070;20.970;2023-02-12T04:09:56;61468.25;;;-147.04;85.92
39075;BME280;24826;52.070;20.970;2023-02-12T04:12:54;61484.16;;;-147.04;86.70
39075;BME280;24826;52.070;20.970;2023-02-12T04:16:01;61468.25;;;-147.04;85.88
39075;BME280;24826;52.070;20.970;2023-02-12T04:18:50;61488.13;;;-147.04;86.36
39075;BME280;24826;52.070;20.970;2023-02-12T04:27:26;61502.06;;;-147.04;84.09
39075;BME280;24826;52.070;20.970;2023-02-12T04:33:05;61454.34;;;-147.04;81.67
39075;BME280;24826;52.070;20.970;2023-02-12T04:36:00;61474.22;;;-147.04;80.73
39075;BME280;24826;52.070;20.970;2023-02-12T04:38:50;61480.19;;;-147.04;80.22
39075;BME280;24826;52.070;20.970;2023-02-12T04:41:37;61472.22;;;-147.04;79.62
39075;BME280;24826;52.070;20.970;2023-02-12T04:44:25;61484.16;;;-147.04;80.56
39075;BME280;24826;52.070;20.970;2023-02-12T04:47:14;61476.22;;;-147.04;80.58
39075;BME280;24826;52.070;20.970;2023-02-12T04:49:59;61458.31;;;-147.04;79.64
39075;BME280;24826;52.070;20.970;2023-02-12T04:52:43;61492.13;;;-147.04;80.50
39075;BME280;24826;52.070;20.970;2023-02-12T04:55:28;61480.19;;;-147.04;80.85
39075;BME280;24826;52.070;20.970;2023-02-12T04:58:12;61476.22;;;-147.04;81.07
39075;BME280;24826;52.070;20.970;2023-02-12T05:00:58;61450.34;;;-147.04;80.40
39075;BME280;24826;52.070;20.970;2023-02-12T05:03:42;61472.22;;;-147.04;81.00
39075;BME280;24826;52.070;20.970;2023-02-12T05:06:27;61496.09;;;-147.04;81.06
39075;BME280;24826;52.070;20.970;2023-02-12T05:09:17;61486.16;;;-147.04;82.41
39075;BME280;24826;52.070;20.970;2023-02-12T05:12:02;61472.22;;;-147.04;81.37
39075;BME280;24826;52.070;20.970;2023-02-12T05:14:46;61468.25;;;-147.04;82.13
39075;BME280;24826;52.070;20.970;2023-02-12T05:17:31;61492.13;;;-147.04;80.65
39075;BME280;24826;52.070;20.970;2023-02-12T05:20:15;61494.09;;;-147.04;79.65
39075;BME280;24826;52.070;20.970;2023-02-12T05:22:59;61504.03;;;-147.04;78.76
39075;BME280;24826;52.070;20.970;2023-02-12T05:25:43;61488.13;;;-147.04;78.53
39075;BME280;24826;52.070;20.970;2023-02-12T05:28:28;61484.16;;;-147.04;77.46
39075;BME280;24826;52.070;20.970;2023-02-12T05:31:17;61460.31;;;-147.04;77.74
39075;BME280;24826;52.070;20.970;2023-02-12T05:34:01;61480.19;;;-147.04;78.52
39075;BME280;24826;52.070;20.970;2023-02-12T05:36:45;61468.25;;;-147.04;77.79
39075;BME280;24826;52.070;20.970;2023-02-12T05:39:30;61482.19;;;-147.04;77.90
39075;BME280;24826;52.070;20.970;2023-02-12T05:42:14;61492.13;;;-147.04;78.58
39075;BME280;24826;52.070;20.970;2023-02-12T05:44:59;61498.09;;;-147.04;77.87
39075;BME280;24826;52.070;20.970;2023-02-12T05:47:43;61488.13;;;-147.04;79.05
39075;BME280;24826;52.070;20.970;2023-02-12T05:50:27;61472.22;;;-147.04;79.12
39075;BME280;24826;52.070;20.970;2023-02-12T05:53:12;61480.19;;;-147.04;78.95
39075;BME280;24826;52.070;20.970;2023-02-12T05:58:54;61500.06;;;-147.04;79.26
39075;BME280;24826;52.070;20.970;2023-02-12T06:01:41;61486.16;;;-147.04;78.64
39075;BME280;24826;52.070;20.970;2023-02-12T06:04:27;61484.16;;;-147.04;79.50
39075;BME280;24826;52.070;20.970;2023-02-12T06:07:11;61492.13;;;-147.04;79.62
39075;BME280;24826;52.070;20.970;2023-02-12T06:09:55;61476.22;;;-147.04;79.98
39075;BME280;24826;52.070;20.970;2023-02-12T06:12:40;61498.09;;;-147.04;79.61
39075;BME280;24826;52.070;20.970;2023-02-12T06:15:24;61500.06;;;-147.04;79.40
39075;BME280;24826;52.070;20.970;2023-02-12T06:18:09;61510.00;;;-147.04;79.35
39075;BME280;24826;52.070;20.970;2023-02-12T06:20:54;61464.28;;;-147.04;79.69
39075;BME280;24826;52.070;20.970;2023-02-12T06:23:38;61472.22;;;-147.04;78.89
39075;BME280;24826;52.070;20.970;2023-02-12T06:26:23;61448.38;;;-147.04;78.63
39075;BME280;24826;52.070;20.970;2023-02-12T06:29:08;61480.19;;;-147.04;77.67
39075;BME280;24826;52.070;20.970;2023-02-12T06:31:52;61458.31;;;-147.04;76.90
39075;BME280;24826;52.070;20.970;2023-02-12T06:34:36;61468.25;;;-147.04;76.75
39075;BME280;24826;52.070;20.970;2023-02-12T06:37:21;61498.09;;;-147.04;77.80
39075;BME280;24826;52.070;20.970;2023-02-12T06:40:06;61508.03;;;-147.04;78.15
39075;BME280;24826;52.070;20.970;2023-02-12T06:42:50;61480.19;;;-147.04;77.64
39075;BME280;24826;52.070;20.970;2023-02-12T06:45:35;61476.22;;;-147.04;77.88
39075;BME280;24826;52.070;20.970;2023-02-12T06:48:19;61506.03;;;-147.04;78.54
39075;BME280;24826;52.070;20.970;2023-02-12T06:51:09;61521.94;;;-147.04;77.41
39075;BME280;24826;52.070;20.970;2023-02-12T06:53:54;61523.94;;;-147.04;77.50
39075;BME280;24826;52.070;20.970;2023-02-12T06:56:39;61537.84;;;-147.04;76.78
39075;BME280;24826;52.070;20.970;2023-02-12T06:59:23;61523.94;;;-147.04;77.00
39075;BME280;24826;52.070;20.970;2023-02-12T07:02:10;61504.03;;;-147.04;76.05
39075;BME280;24826;52.070;20.970;2023-02-12T07:04:54;61571.66;;;-147.04;76.54
39075;BME280;24826;52.070;20.970;2023-02-12T07:07:39;61551.78;;;-147.04;75.50
39075;BME280;24826;52.070;20.970;2023-02-12T07:10:23;61523.94;;;-147.04;76.24
39075;BME280;24826;52.070;20.970;2023-02-12T07:13:07;61551.78;;;-147.04;75.93
39075;BME280;24826;52.070;20.970;2023-02-12T07:15:52;61555.75;;;-147.04;74.92
39075;BME280;24826;52.070;20.970;2023-02-12T07:18:36;61523.94;;;-147.04;74.74
39075;BME280;24826;52.070;20.970;2023-02-12T07:21:21;61571.66;;;-147.04;75.44
39075;BME280;24826;52.070;20.970;2023-02-12T07:24:06;61549.78;;;-147.04;76.33
39075;BME280;24826;52.070;20.970;2023-02-12T07:26:50;61579.59;;;-147.04;75.98
39075;BME280;24826;52.070;20.970;2023-02-12T07:29:35;61575.63;;;-147.04;74.10
39075;BME280;24826;52.070;20.970;2023-02-12T07:32:19;61543.81;;;-147.04;74.66
39075;BME280;24826;52.070;20.970;2023-02-12T07:35:04;61527.91;;;-147.04;75.12
39075;BME280;24826;52.070;20.970;2023-02-12T07:37:48;61525.91;;;-147.04;74.64
39075;BME280;24826;52.070;20.970;2023-02-12T07:40:32;61527.91;;;-147.04;72.47
39075;BME280;24826;52.070;20.970;2023-02-12T07:43:17;61512.00;;;-147.04;71.82
39075;BME280;24826;52.070;20.970;2023-02-12T07:46:09;61508.03;;;-147.04;72.21
39075;BME280;24826;52.070;20.970;2023-02-12T07:48:56;61527.91;;;-147.04;72.64
39075;BME280;24826;52.070;20.970;2023-02-12T07:51:40;61547.78;;;-147.04;71.98
39075;BME280;24826;52.070;20.970;2023-02-12T07:54:25;61523.94;;;-147.04;72.00
39075;BME280;24826;52.070;20.970;2023-02-12T07:57:10;61667.09;;;-147.04;71.65
39075;BME280;24826;52.070;20.970;2023-02-12T07:59:54;61539.84;;;-147.04;72.49
39075;BME280;24826;52.070;20.970;2023-02-12T08:02:38;61561.72;;;-147.04;72.23
39075;BME280;24826;52.070;20.970;2023-02-12T08:05:22;61517.97;;;-147.04;70.66
39075;BME280;24826;52.070;20.970;2023-02-12T08:08:07;61563.69;;;-147.04;72.13
39075;BME280;24826;52.070;20.970;2023-02-12T08:10:54;61569.66;;;-147.04;70.02
39075;BME280;24826;52.070;20.970;2023-02-12T08:13:39;61567.69;;;-147.04;70.53
39075;BME280;24826;52.070;20.970;2023-02-12T08:16:26;61539.84;;;-147.04;69.92
39075;BME280;24826;52.070;20.970;2023-02-12T08:19:11;61587.56;;;-147.04;68.64
39075;BME280;24826;52.070;20.970;2023-02-12T08:21:56;61543.81;;;-147.04;69.15
39075;BME280;24826;52.070;20.970;2023-02-12T08:24:41;61555.75;;;-147.04;68.46
39075;BME280;24826;52.070;20.970;2023-02-12T08:27:26;61535.88;;;-147.04;68.35
39075;BME280;24826;52.070;20.970;2023-02-12T08:30:11;61527.91;;;-147.04;68.26
39075;BME280;24826;52.070;20.970;2023-02-12T08:32:55;61523.94;;;-147.04;67.40
39075;BME280;24826;52.070;20.970;2023-02-12T08:35:40;61569.66;;;-147.04;67.54
39075;BME280;24826;52.070;20.970;2023-02-12T08:38:24;61545.81;;;-147.04;67.06
39075;BME280;24826;52.070;20.970;2023-02-12T08:41:10;61557.75;;;-147.04;66.04
39075;BME280;24826;52.070;20.970;2023-02-12T08:44:00;61569.66;;;-147.04;67.82
39075;BME280;24826;52.070;20.970;2023-02-12T08:46:49;61557.75;;;-147.04;66.92
39075;BME280;24826;52.070;20.970;2023-02-12T08:49:34;61585.56;;;-147.04;66.52
39075;BME280;24826;52.070;20.970;2023-02-12T08:52:18;61571.66;;;-147.04;65.16
39075;BME280;24826;52.070;20.970;2023-02-12T08:55:03;61559.72;;;-147.04;64.52
39075;BME280;24826;52.070;20.970;2023-02-12T08:57:47;61571.66;;;-147.04;63.10
39075;BME280;24826;52.070;20.970;2023-02-12T09:00:32;61543.81;;;-147.04;64.07
39075;BME280;24826;52.070;20.970;2023-02-12T09:03:16;61543.81;;;-147.04;63.88
39075;BME280;24826;52.070;20.970;2023-02-12T09:06:07;61539.84;;;-147.04;64.43
39075;BME280;24826;52.070;20.970;2023-02-12T09:08:53;61531.88;;;-147.04;63.90
39075;BME280;24826;52.070;20.970;2023-02-12T09:11:38;61555.75;;;-147.04;64.59
39075;BME280;24826;52.070;20.970;2023-02-12T09:14:23;61547.78;;;-147.04;63.66
39075;BME280;24826;52.070;20.970;2023-02-12T09:17:07;61484.16;;;-147.04;63.58
39075;BME280;24826;52.070;20.970;2023-02-12T09:19:52;61512.00;;;-147.04;64.88
39075;BME280;24826;52.070;20.970;2023-02-12T09:22:37;61476.22;;;-147.04;64.88
39075;BME280;24826;52.070;20.970;2023-02-12T09:25:22;61525.91;;;-147.04;64.90
39075;BME280;24826;52.070;20.970;2023-02-12T09:28:06;61547.78;;;-147.04;65.60
39075;BME280;24826;52.070;20.970;2023-02-12T09:30:51;61531.88;;;-147.04;64.37
39075;BME280;24826;52.070;20.970;2023-02-12T09:33:35;61519.94;;;-147.04;63.60
39075;BME280;24826;52.070;20.970;2023-02-12T09:36:20;61547.78;;;-147.04;62.77
39075;BME280;24826;52.070;20.970;2023-02-12T09:39:04;61519.94;;;-147.04;63.10
39075;BME280;24826;52.070;20.970;2023-02-12T09:50:56;61527.91;;;-147.04;61.71
39075;BME280;24826;52.070;20.970;2023-02-12T09:53:45;61579.59;;;-147.04;61.13
39075;BME280;24826;52.070;20.970;2023-02-12T09:56:33;61537.84;;;-147.04;60.34
39075;BME280;24826;52.070;20.970;2023-02-12T09:59:29;61492.13;;;-147.04;59.65
39075;BME280;24826;52.070;20.970;2023-02-12T10:02:16;61523.94;;;-147.04;58.66
39075;BME280;24826;52.070;20.970;2023-02-12T10:05:02;61523.94;;;-147.04;59.42
39075;BME280;24826;52.070;20.970;2023-02-12T10:08:34;61519.94;;;-147.04;59.80
39075;BME280;24826;52.070;20.970;2023-02-12T10:26:34;61486.16;;;-147.04;57.56
39075;BME280;24826;52.070;20.970;2023-02-12T10:29:23;61488.13;;;-147.04;57.62
39075;BME280;24826;52.070;20.970;2023-02-12T10:32:24;61484.16;;;-147.04;58.37
39075;BME280;24826;52.070;20.970;2023-02-12T10:35:14;61484.16;;;-147.04;58.03
39075;BME280;24826;52.070;20.970;2023-02-12T10:38:06;61508.03;;;-147.04;57.08
39075;BME280;24826;52.070;20.970;2023-02-12T10:40:56;61486.16;;;-147.04;57.20
39075;BME280;24826;52.070;20.970;2023-02-12T10:43:44;61484.16;;;-147.04;57.03
39075;BME280;24826;52.070;20.970;2023-02-12T10:46:30;61517.97;;;-147.04;56.82
39075;BME280;24826;52.070;20.970;2023-02-12T10:49:17;61488.13;;;-147.04;57.54
39075;BME280;24826;52.070;20.970;2023-02-12T10:52:18;61454.34;;;-147.04;58.07
39075;BME280;24826;52.070;20.970;2023-02-12T10:55:23;61490.13;;;-147.04;58.96
39075;BME280;24826;52.070;20.970;2023-02-12T10:58:21;61488.13;;;-147.04;58.79
39075;BME280;24826;52.070;20.970;2023-02-12T11:01:19;61490.13;;;-147.04;58.67
39075;BME280;24826;52.070;20.970;2023-02-12T11:04:26;61523.94;;;-147.04;58.16
39075;BME280;24826;52.070;20.970;2023-02-12T11:07:11;61512.00;;;-147.04;56.94
39075;BME280;24826;52.070;20.970;2023-02-12T11:09:56;61480.19;;;-147.04;55.92
39075;BME280;24826;52.070;20.970;2023-02-12T11:12:41;61504.03;;;-147.04;57.32
39075;BME280;24826;52.070;20.970;2023-02-12T11:15:46;61494.09;;;-147.04;58.06
39075;BME280;24826;52.070;20.970;2023-02-12T11:18:31;61504.03;;;-147.04;58.24
39075;BME280;24826;52.070;20.970;2023-02-12T11:21:21;61512.00;;;-147.04;58.49
39075;BME280;24826;52.070;20.970;2023-02-12T11:32:53;61494.09;;;-147.04;58.02
39075;BME280;24826;52.070;20.970;2023-02-12T11:35:48;61488.13;;;-147.04;58.52
39075;BME280;24826;52.070;20.970;2023-02-12T11:38:36;61496.09;;;-147.04;58.45
39075;BME280;24826;52.070;20.970;2023-02-12T11:41:33;61498.09;;;-147.04;58.62
39075;BME280;24826;52.070;20.970;2023-02-12T11:44:31;61519.94;;;-147.04;58.13
39075;BME280;24826;52.070;20.970;2023-02-12T11:47:20;61482.19;;;-147.04;57.53
39075;BME280;24826;52.070;20.970;2023-02-12T11:50:24;61523.94;;;-147.04;58.02
39075;BME280;24826;52.070;20.970;2023-02-12T11:53:20;61430.47;;;-147.04;58.33
39075;BME280;24826;52.070;20.970;2023-02-12T11:56:13;61460.31;;;-147.04;58.03
39075;BME280;24826;52.070;20.970;2023-02-12T11:59:11;61478.19;;;-147.04;57.61
39075;BME280;24826;52.070;20.970;2023-02-12T12:02:14;61677.03;;;-147.04;57.93
39075;BME280;24826;52.070;20.970;2023-02-12T12:05:29;61470.25;;;-147.04;58.61
39075;BME280;24826;52.070;20.970;2023-02-12T12:08:22;61504.03;;;-147.04;58.84
39075;BME280;24826;52.070;20.970;2023-02-12T12:11:18;61458.31;;;-147.04;58.87
39075;BME280;24826;52.070;20.970;2023-02-12T12:14:23;61476.22;;;-147.04;58.62
39075;BME280;24826;52.070;20.970;2023-02-12T12:17:13;61468.25;;;-147.04;58.27
39075;BME280;24826;52.070;20.970;2023-02-12T12:20:21;61474.22;;;-147.04;58.10
39075;BME280;24826;52.070;20.970;2023-02-12T12:25:57;61488.13;;;-147.04;57.84
39075;BME280;24826;52.070;20.970;2023-02-12T12:28:55;61448.38;;;-147.04;57.89
39075;BME280;24826;52.070;20.970;2023-02-12T12:31:43;61468.25;;;-147.04;58.03
39075;BME280;24826;52.070;20.970;2023-02-12T12:34:29;61486.16;;;-147.04;58.02
39075;BME280;24826;52.070;20.970;2023-02-12T12:37:34;61454.34;;;-147.04;58.48
39075;BME280;24826;52.070;20.970;2023-02-12T12:46:33;61488.13;;;-147.04;59.49
39075;BME280;24826;52.070;20.970;2023-02-12T12:49:33;61462.28;;;-147.04;59.79
39075;BME280;24826;52.070;20.970;2023-02-12T12:52:50;61512.00;;;-147.04;59.42
39075;BME280;24826;52.070;20.970;2023-02-12T13:01:47;61456.31;;;-147.04;59.94
39075;BME280;24826;52.070;20.970;2023-02-12T13:11:05;61432.47;;;-147.04;60.75
39075;BME280;24826;52.070;20.970;2023-02-12T13:13:58;61486.16;;;-147.04;60.38
39075;BME280;24826;52.070;20.970;2023-02-12T13:16:53;61452.34;;;-147.04;60.24
39075;BME280;24826;52.070;20.970;2023-02-12T13:19:50;61448.38;;;-147.04;60.67
39075;BME280;24826;52.070;20.970;2023-02-12T13:22:56;61498.09;;;-147.04;60.98
39075;BME280;24826;52.070;20.970;2023-02-12T13:25:51;61442.41;;;-147.04;61.22
39075;BME280;24826;52.070;20.970;2023-02-12T13:28:48;61496.09;;;-147.04;61.13
39075;BME280;24826;52.070;20.970;2023-02-12T13:31:44;61464.28;;;-147.04;61.23
39075;BME280;24826;52.070;20.970;2023-02-12T13:34:31;61466.25;;;-147.04;61.37
39075;BME280;24826;52.070;20.970;2023-02-12T13:37:24;61432.47;;;-147.04;61.15
39075;BME280;24826;52.070;20.970;2023-02-12T13:40:21;61434.44;;;-147.04;62.07
39075;BME280;24826;52.070;20.970;2023-02-12T13:51:47;61446.38;;;-147.04;62.61
39075;BME280;24826;52.070;20.970;2023-02-12T13:54:48;61494.09;;;-147.04;62.34
39075;BME280;24826;52.070;20.970;2023-02-12T13:57:37;61458.31;;;-147.04;61.98
39075;BME280;24826;52.070;20.970;2023-02-12T14:03:30;61456.31;;;-147.04;63.03
39075;BME280;24826;52.070;20.970;2023-02-12T14:06:20;61529.91;;;-147.04;62.88
39075;BME280;24826;52.070;20.970;2023-02-12T14:09:09;61442.41;;;-147.04;63.10
39075;BME280;24826;52.070;20.970;2023-02-12T14:11:54;61452.34;;;-147.04;63.05
39075;BME280;24826;52.070;20.970;2023-02-12T14:14:47;61456.31;;;-147.04;62.83
39075;BME280;24826;52.070;20.970;2023-02-12T14:20:31;61464.28;;;-147.04;63.87
39075;BME280;24826;52.070;20.970;2023-02-12T14:23:25;61440.41;;;-147.04;64.07
39075;BME280;24826;52.070;20.970;2023-02-12T14:26:15;61436.44;;;-147.04;64.06
39075;BME280;24826;52.070;20.970;2023-02-12T14:29:05;61464.28;;;-147.04;64.53
39075;BME280;24826;52.070;20.970;2023-02-12T14:31:58;61627.34;;;-147.04;64.56
39075;BME280;24826;52.070;20.970;2023-02-12T14:34:43;61448.38;;;-147.04;64.65
39075;BME280;24826;52.070;20.970;2023-02-12T14:37:33;61410.59;;;-147.04;64.89
39075;BME280;24826;52.070;20.970;2023-02-12T14:49:24;61394.69;;;-147.04;66.64
39075;BME280;24826;52.070;20.970;2023-02-12T14:52:17;61412.56;;;-147.04;66.41
39075;BME280;24826;52.070;20.970;2023-02-12T14:55:05;61402.63;;;-147.04;66.95
39075;BME280;24826;52.070;20.970;2023-02-12T14:57:59;61416.56;;;-147.04;67.02
39075;BME280;24826;52.070;20.970;2023-02-12T15:00:46;61400.66;;;-147.04;67.47
39075;BME280;24826;52.070;20.970;2023-02-12T15:03:39;61388.72;;;-147.04;67.82
39075;BME280;24826;52.070;20.970;2023-02-12T15:06:35;61378.78;;;-147.04;67.72
39075;BME280;24826;52.070;20.970;2023-02-12T15:09:31;61406.63;;;-147.04;68.67
39075;BME280;24826;52.070;20.970;2023-02-12T15:21:30;61416.56;;;-147.04;70.87
39075;BME280;24826;52.070;20.970;2023-02-12T15:24:21;61428.47;;;-147.04;70.94
39075;BME280;24826;52.070;20.970;2023-02-12T15:27:12;61406.63;;;-147.04;71.50
39075;BME280;24826;52.070;20.970;2023-02-12T15:29:56;61406.63;;;-147.04;71.95
39075;BME280;24826;52.070;20.970;2023-02-12T15:32:41;61460.31;;;-147.04;72.75
39075;BME280;24826;52.070;20.970;2023-02-12T15:35:34;61420.53;;;-147.04;73.15
39075;BME280;24826;52.070;20.970;2023-02-12T15:38:30;61436.44;;;-147.04;73.41
39075;BME280;24826;52.070;20.970;2023-02-12T15:41:36;61420.53;;;-147.04;73.77
39075;BME280;24826;52.070;20.970;2023-02-12T15:44:39;61432.47;;;-147.04;74.25
39075;BME280;24826;52.070;20.970;2023-02-12T15:47:24;61428.47;;;-147.04;75.15
39075;BME280;24826;52.070;20.970;2023-02-12T15:50:12;61454.34;;;-147.04;75.19
39075;BME280;24826;52.070;20.970;2023-02-12T15:52:57;61424.50;;;-147.04;75.01
39075;BME280;24826;52.070;20.970;2023-02-12T15:55:43;61448.38;;;-147.04;75.04
39075;BME280;24826;52.070;20.970;2023-02-12T15:58:30;61388.72;;;-147.04;75.68
39075;BME280;24826;52.070;20.970;2023-02-12T16:01:22;61414.56;;;-147.04;76.18
39075;BME280;24826;52.070;20.970;2023-02-12T16:04:07;61436.44;;;-147.04;76.57
39075;BME280;24826;52.070;20.970;2023-02-12T16:06:52;61430.47;;;-147.04;76.63
39075;BME280;24826;52.070;20.970;2023-02-12T16:09:36;61454.34;;;-147.04;76.54